Terminal Aerodrome Forecast
Issued by NWS Cleveland, OH

Home | Current Version | Previous Version | Graphics & Text | Print | Product List | Glossary On
Versions: 1 2 3 4 5 6 7 8 9 10 11 12 13 14 15 16 17 18 19 20 21 22 23 24 25
000
FTUS41 KCLE 281730
TAFCLE
TAF
KCLE 281730Z 2818/2924 29005KT P6SM SCT040
     FM282000 33008KT P6SM VCTS BKN040CB
     FM282300 01005KT P6SM BKN150
     FM291400 02008KT P6SM FEW050=

USA.gov is the U.S. government's official web portal to all federal, state and local government web resources and services.